sensor_id;sensor_type;location;lat;lon;timestamp;pressure;altitude;pressure_sealevel;temperature;humidity
29935;BME280;19905;53.370;-6.314;2023-05-09T00:01:18;100902.19;;;11.54;100.00
29935;BME280;19905;53.370;-6.314;2023-05-09T00:03:46;100899.91;;;11.49;100.00
29935;BME280;19905;53.370;-6.314;2023-05-09T00:06:17;100892.94;;;11.48;100.00
29935;BME280;19905;53.370;-6.314;2023-05-09T00:08:46;100890.91;;;11.52;100.00
29935;BME280;19905;53.370;-6.314;2023-05-09T00:11:14;100882.38;;;11.48;100.00
29935;BME280;19905;53.370;-6.314;2023-05-09T00:13:43;100886.19;;;11.44;100.00
29935;BME280;19905;53.370;-6.314;2023-05-09T00:16:14;100883.47;;;11.45;100.00
29935;BME280;19905;53.370;-6.314;2023-05-09T00:18:43;100885.72;;;11.39;100.00
29935;BME280;19905;53.370;-6.314;2023-05-09T00:21:11;100882.22;;;11.38;100.00
29935;BME280;19905;53.370;-6.314;2023-05-09T00:23:40;100889.69;;;11.33;100.00
29935;BME280;19905;53.370;-6.314;2023-05-09T00:26:09;100896.53;;;11.36;100.00
29935;BME280;19905;53.370;-6.314;2023-05-09T00:28:37;100896.88;;;11.31;100.00
29935;BME280;19905;53.370;-6.314;2023-05-09T00:31:06;100904.09;;;11.29;100.00
29935;BME280;19905;53.370;-6.314;2023-05-09T00:33:36;100900.84;;;11.26;100.00
29935;BME280;19905;53.370;-6.314;2023-05-09T00:36:05;100903.59;;;11.24;100.00
29935;BME280;19905;53.370;-6.314;2023-05-09T00:38:33;100898.53;;;11.21;100.00
29935;BME280;19905;53.370;-6.314;2023-05-09T00:41:02;100903.00;;;11.20;100.00
29935;BME280;19905;53.370;-6.314;2023-05-09T00:43:31;100902.03;;;11.22;100.00
29935;BME280;19905;53.370;-6.314;2023-05-09T00:46:00;100906.72;;;11.18;100.00
29935;BME280;19905;53.370;-6.314;2023-05-09T00:48:28;100904.91;;;11.18;100.00
29935;BME280;19905;53.370;-6.314;2023-05-09T00:50:59;100905.75;;;11.19;100.00
29935;BME280;19905;53.370;-6.314;2023-05-09T00:53:28;100908.63;;;11.16;100.00
29935;BME280;19905;53.370;-6.314;2023-05-09T00:55:57;100903.34;;;11.16;100.00
29935;BME280;19905;53.370;-6.314;2023-05-09T00:58:27;100900.91;;;11.13;100.00
29935;BME280;19905;53.370;-6.314;2023-05-09T01:00:57;100905.28;;;11.14;100.00
29935;BME280;19905;53.370;-6.314;2023-05-09T01:03:28;100912.47;;;11.12;100.00
29935;BME280;19905;53.370;-6.314;2023-05-09T01:06:04;100908.13;;;11.11;100.00
29935;BME280;19905;53.370;-6.314;2023-05-09T01:08:42;100906.56;;;11.08;100.00
29935;BME280;19905;53.370;-6.314;2023-05-09T01:11:19;100910.41;;;11.04;100.00
29935;BME280;19905;53.370;-6.314;2023-05-09T01:13:56;100904.50;;;11.01;100.00
29935;BME280;19905;53.370;-6.314;2023-05-09T01:16:31;100904.59;;;10.99;100.00
29935;BME280;19905;53.370;-6.314;2023-05-09T01:19:12;100908.34;;;10.97;100.00
29935;BME280;19905;53.370;-6.314;2023-05-09T01:21:48;100907.50;;;10.96;100.00
29935;BME280;19905;53.370;-6.314;2023-05-09T01:24:27;100907.59;;;10.94;100.00
29935;BME280;19905;53.370;-6.314;2023-05-09T01:27:13;100907.94;;;10.90;100.00
29935;BME280;19905;53.370;-6.314;2023-05-09T01:29:50;100902.16;;;10.85;100.00
29935;BME280;19905;53.370;-6.314;2023-05-09T01:32:26;100903.25;;;10.82;100.00
29935;BME280;19905;53.370;-6.314;2023-05-09T01:34:58;100894.69;;;10.79;100.00
29935;BME280;19905;53.370;-6.314;2023-05-09T01:37:31;100897.44;;;10.77;100.00
29935;BME280;19905;53.370;-6.314;2023-05-09T01:40:06;100900.19;;;10.76;100.00
29935;BME280;19905;53.370;-6.314;2023-05-09T01:42:40;100896.72;;;10.75;100.00
29935;BME280;19905;53.370;-6.314;2023-05-09T01:45:13;100895.25;;;10.71;100.00
29935;BME280;19905;53.370;-6.314;2023-05-09T01:47:43;100898.22;;;10.66;100.00
29935;BME280;19905;53.370;-6.314;2023-05-09T01:50:16;100893.41;;;10.60;100.00
29935;BME280;19905;53.370;-6.314;2023-05-09T01:52:47;100893.19;;;10.63;100.00
29935;BME280;19905;53.370;-6.314;2023-05-09T01:55:17;100899.31;;;10.64;100.00
29935;BME280;19905;53.370;-6.314;2023-05-09T01:57:48;100895.34;;;10.58;100.00
29935;BME280;19905;53.370;-6.314;2023-05-09T02:00:19;100892.91;;;10.55;100.00
29935;BME280;19905;53.370;-6.314;2023-05-09T02:02:49;100891.09;;;10.56;100.00
29935;BME280;19905;53.370;-6.314;2023-05-09T02:05:20;100886.66;;;10.56;100.00
29935;BME280;19905;53.370;-6.314;2023-05-09T02:07:54;100883.72;;;10.48;100.00
29935;BME280;19905;53.370;-6.314;2023-05-09T02:10:26;100878.34;;;10.50;100.00
29935;BME280;19905;53.370;-6.314;2023-05-09T02:12:55;100881.34;;;10.45;100.00
29935;BME280;19905;53.370;-6.314;2023-05-09T02:15:26;100875.63;;;10.38;100.00
29935;BME280;19905;53.370;-6.314;2023-05-09T02:17:57;100877.09;;;10.42;100.00
29935;BME280;19905;53.370;-6.314;2023-05-09T02:20:25;100880.50;;;10.45;100.00
29935;BME280;19905;53.370;-6.314;2023-05-09T02:22:54;100875.22;;;10.45;100.00
29935;BME280;19905;53.370;-6.314;2023-05-09T02:25:23;100873.06;;;10.50;100.00
29935;BME280;19905;53.370;-6.314;2023-05-09T02:27:54;100869.66;;;10.36;100.00
29935;BME280;19905;53.370;-6.314;2023-05-09T02:30:27;100873.63;;;10.42;100.00
29935;BME280;19905;53.370;-6.314;2023-05-09T02:33:01;100862.22;;;10.41;100.00
29935;BME280;19905;53.370;-6.314;2023-05-09T02:35:31;100868.47;;;10.40;100.00
29935;BME280;19905;53.370;-6.314;2023-05-09T02:38:00;100857.03;;;10.40;100.00
29935;BME280;19905;53.370;-6.314;2023-05-09T02:40:30;100864.38;;;10.36;100.00
29935;BME280;19905;53.370;-6.314;2023-05-09T02:42:59;100860.25;;;10.32;100.00
29935;BME280;19905;53.370;-6.314;2023-05-09T02:45:29;100863.41;;;10.37;100.00
29935;BME280;19905;53.370;-6.314;2023-05-09T02:47:57;100855.94;;;10.31;100.00
29935;BME280;19905;53.370;-6.314;2023-05-09T02:50:26;100859.16;;;10.35;100.00
29935;BME280;19905;53.370;-6.314;2023-05-09T02:52:55;100854.22;;;10.30;100.00
29935;BME280;19905;53.370;-6.314;2023-05-09T02:55:23;100855.19;;;10.29;100.00
29935;BME280;19905;53.370;-6.314;2023-05-09T02:57:52;100862.16;;;10.30;100.00
29935;BME280;19905;53.370;-6.314;2023-05-09T03:00:40;100855.81;;;10.33;100.00
29935;BME280;19905;53.370;-6.314;2023-05-09T03:03:09;100860.25;;;10.32;100.00
29935;BME280;19905;53.370;-6.314;2023-05-09T03:05:37;100862.06;;;10.32;100.00
29935;BME280;19905;53.370;-6.314;2023-05-09T03:08:06;100863.63;;;10.34;100.00
29935;BME280;19905;53.370;-6.314;2023-05-09T03:10:35;100855.19;;;10.29;100.00
29935;BME280;19905;53.370;-6.314;2023-05-09T03:13:03;100859.63;;;10.29;100.00
29935;BME280;19905;53.370;-6.314;2023-05-09T03:15:32;100854.13;;;10.32;100.00
29935;BME280;19905;53.370;-6.314;2023-05-09T03:18:02;100858.34;;;10.34;100.00
29935;BME280;19905;53.370;-6.314;2023-05-09T03:20:31;100853.06;;;10.34;100.00
29935;BME280;19905;53.370;-6.314;2023-05-09T03:22:59;100858.34;;;10.34;100.00
29935;BME280;19905;53.370;-6.314;2023-05-09T03:25:28;100855.34;;;10.39;100.00
29935;BME280;19905;53.370;-6.314;2023-05-09T03:27:56;100855.59;;;10.36;100.00
29935;BME280;19905;53.370;-6.314;2023-05-09T03:30:25;100849.69;;;10.32;100.00
29935;BME280;19905;53.370;-6.314;2023-05-09T03:32:53;100852.44;;;10.31;100.00
29935;BME280;19905;53.370;-6.314;2023-05-09T03:35:23;100858.47;;;10.33;100.00
29935;BME280;19905;53.370;-6.314;2023-05-09T03:37:52;100851.72;;;10.29;100.00
29935;BME280;19905;53.370;-6.314;2023-05-09T03:40:20;100848.34;;;10.27;100.00
29935;BME280;19905;53.370;-6.314;2023-05-09T03:42:49;100846.63;;;10.26;100.00
29935;BME280;19905;53.370;-6.314;2023-05-09T03:45:18;100838.53;;;10.16;100.00
29935;BME280;19905;53.370;-6.314;2023-05-09T03:47:46;100846.44;;;10.16;100.00
29935;BME280;19905;53.370;-6.314;2023-05-09T03:50:15;100836.72;;;10.16;100.00
29935;BME280;19905;53.370;-6.314;2023-05-09T03:52:45;100839.28;;;10.18;100.00
29935;BME280;19905;53.370;-6.314;2023-05-09T03:55:13;100841.91;;;10.18;100.00
29935;BME280;19905;53.370;-6.314;2023-05-09T03:57:42;100839.16;;;10.19;100.00
29935;BME280;19905;53.370;-6.314;2023-05-09T04:00:11;100841.66;;;10.21;100.00
29935;BME280;19905;53.370;-6.314;2023-05-09T04:02:41;100836.19;;;10.24;100.00
29935;BME280;19905;53.370;-6.314;2023-05-09T04:05:10;100834.41;;;10.25;100.00
29935;BME280;19905;53.370;-6.314;2023-05-09T04:07:39;100832.59;;;10.25;100.00
29935;BME280;19905;53.370;-6.314;2023-05-09T04:10:10;100831.44;;;10.29;100.00
29935;BME280;19905;53.370;-6.314;2023-05-09T04:12:39;100826.88;;;10.31;100.00
29935;BME280;19905;53.370;-6.314;2023-05-09T04:15:08;100828.78;;;10.29;100.00
29935;BME280;19905;53.370;-6.314;2023-05-09T04:17:37;100820.25;;;10.26;100.00
29935;BME280;19905;53.370;-6.314;2023-05-09T04:20:07;100820.44;;;10.23;100.00
29935;BME280;19905;53.370;-6.314;2023-05-09T04:22:37;100822.13;;;10.24;100.00
29935;BME280;19905;53.370;-6.314;2023-05-09T04:25:06;100821.06;;;10.26;100.00
29935;BME280;19905;53.370;-6.314;2023-05-09T04:27:40;100821.94;;;10.27;100.00
29935;BME280;19905;53.370;-6.314;2023-05-09T04:30:09;100817.72;;;10.24;100.00
29935;BME280;19905;53.370;-6.314;2023-05-09T04:32:38;100816.34;;;10.18;100.00
29935;BME280;19905;53.370;-6.314;2023-05-09T04:35:12;100819.19;;;10.15;100.00
29935;BME280;19905;53.370;-6.314;2023-05-09T04:37:44;100817.81;;;10.23;100.00
29935;BME280;19905;53.370;-6.314;2023-05-09T04:40:13;100821.06;;;10.26;100.00
29935;BME280;19905;53.370;-6.314;2023-05-09T04:42:43;100825.44;;;10.27;100.00
29935;BME280;19905;53.370;-6.314;2023-05-09T04:45:12;100813.44;;;10.34;100.00
29935;BME280;19905;53.370;-6.314;2023-05-09T04:47:41;100818.00;;;10.32;100.00
29935;BME280;19905;53.370;-6.314;2023-05-09T04:50:10;100810.59;;;10.37;100.00
29935;BME280;19905;53.370;-6.314;2023-05-09T04:52:39;100809.69;;;10.50;100.00
29935;BME280;19905;53.370;-6.314;2023-05-09T04:55:11;100811.03;;;10.55;100.00
29935;BME280;19905;53.370;-6.314;2023-05-09T04:57:40;100817.16;;;10.67;100.00
29935;BME280;19905;53.370;-6.314;2023-05-09T05:00:12;100814.44;;;10.68;100.00
29935;BME280;19905;53.370;-6.314;2023-05-09T05:02:42;100811.44;;;10.73;100.00
29935;BME280;19905;53.370;-6.314;2023-05-09T05:05:10;100811.19;;;10.76;100.00
29935;BME280;19905;53.370;-6.314;2023-05-09T05:07:39;100802.56;;;10.74;100.00
29935;BME280;19905;53.370;-6.314;2023-05-09T05:10:08;100807.50;;;10.79;100.00
29935;BME280;19905;53.370;-6.314;2023-05-09T05:12:37;100801.16;;;10.81;100.00
29935;BME280;19905;53.370;-6.314;2023-05-09T05:15:06;100804.84;;;10.79;100.00
29935;BME280;19905;53.370;-6.314;2023-05-09T05:17:36;100804.28;;;10.86;100.00
29935;BME280;19905;53.370;-6.314;2023-05-09T05:20:06;100806.09;;;10.86;100.00
29935;BME280;19905;53.370;-6.314;2023-05-09T05:22:36;100808.59;;;10.87;100.00
29935;BME280;19905;53.370;-6.314;2023-05-09T05:25:07;100807.84;;;10.85;100.00
29935;BME280;19905;53.370;-6.314;2023-05-09T05:27:35;100798.25;;;10.73;100.00
29935;BME280;19905;53.370;-6.314;2023-05-09T05:30:05;100800.88;;;10.73;100.00
29935;BME280;19905;53.370;-6.314;2023-05-09T05:32:36;100797.16;;;10.76;100.00
29935;BME280;19905;53.370;-6.314;2023-05-09T05:35:05;100803.75;;;10.70;100.00
29935;BME280;19905;53.370;-6.314;2023-05-09T05:37:33;100796.16;;;10.65;100.00
29935;BME280;19905;53.370;-6.314;2023-05-09T05:40:02;100800.38;;;10.68;100.00
29935;BME280;19905;53.370;-6.314;2023-05-09T05:42:31;100803.53;;;10.73;100.00
29935;BME280;19905;53.370;-6.314;2023-05-09T05:45:00;100809.28;;;10.78;100.00
29935;BME280;19905;53.370;-6.314;2023-05-09T05:47:30;100799.56;;;10.79;100.00
29935;BME280;19905;53.370;-6.314;2023-05-09T05:50:03;100795.13;;;10.79;100.00
29935;BME280;19905;53.370;-6.314;2023-05-09T05:52:34;100795.97;;;10.80;100.00
29935;BME280;19905;53.370;-6.314;2023-05-09T05:55:03;100792.88;;;10.86;100.00
29935;BME280;19905;53.370;-6.314;2023-05-09T05:57:33;100790.56;;;10.81;100.00
29935;BME280;19905;53.370;-6.314;2023-05-09T06:00:04;100792.13;;;10.84;100.00
29935;BME280;19905;53.370;-6.314;2023-05-09T06:02:36;100792.97;;;10.84;100.00
29935;BME280;19905;53.370;-6.314;2023-05-09T06:05:09;100792.97;;;10.84;100.00
29935;BME280;19905;53.370;-6.314;2023-05-09T06:07:41;100792.75;;;10.87;100.00
29935;BME280;19905;53.370;-6.314;2023-05-09T06:10:11;100793.09;;;10.94;100.00
29935;BME280;19905;53.370;-6.314;2023-05-09T06:12:42;100787.47;;;10.99;100.00
29935;BME280;19905;53.370;-6.314;2023-05-09T06:15:11;100795.38;;;10.87;100.00
29935;BME280;19905;53.370;-6.314;2023-05-09T06:17:40;100795.53;;;10.97;100.00
29935;BME280;19905;53.370;-6.314;2023-05-09T06:20:10;100789.66;;;11.05;100.00
29935;BME280;19905;53.370;-6.314;2023-05-09T06:22:39;100787.72;;;11.07;100.00
29935;BME280;19905;53.370;-6.314;2023-05-09T06:25:10;100791.22;;;11.18;100.00
29935;BME280;19905;53.370;-6.314;2023-05-09T06:27:38;100800.34;;;11.14;100.00
29935;BME280;19905;53.370;-6.314;2023-05-09T06:30:08;100794.81;;;11.17;100.00
29935;BME280;19905;53.370;-6.314;2023-05-09T06:32:52;100793.38;;;11.25;100.00
29935;BME280;19905;53.370;-6.314;2023-05-09T06:35:22;100799.75;;;11.33;100.00
29935;BME280;19905;53.370;-6.314;2023-05-09T06:37:51;100791.59;;;11.36;100.00
29935;BME280;19905;53.370;-6.314;2023-05-09T06:40:21;100786.28;;;11.48;100.00
29935;BME280;19905;53.370;-6.314;2023-05-09T06:42:50;100786.06;;;11.51;100.00
29935;BME280;19905;53.370;-6.314;2023-05-09T06:45:18;100776.28;;;11.62;100.00
29935;BME280;19905;53.370;-6.314;2023-05-09T06:47:47;100779.66;;;11.76;100.00
29935;BME280;19905;53.370;-6.314;2023-05-09T06:50:19;100781.72;;;11.83;100.00
29935;BME280;19905;53.370;-6.314;2023-05-09T06:52:49;100774.84;;;11.92;100.00
29935;BME280;19905;53.370;-6.314;2023-05-09T06:55:18;100773.50;;;11.98;100.00
29935;BME280;19905;53.370;-6.314;2023-05-09T06:57:48;100778.41;;;12.02;100.00
29935;BME280;19905;53.370;-6.314;2023-05-09T07:00:17;100768.34;;;11.85;100.00
29935;BME280;19905;53.370;-6.314;2023-05-09T07:02:46;100766.16;;;11.90;100.00
29935;BME280;19905;53.370;-6.314;2023-05-09T07:05:15;100761.47;;;11.93;100.00
29935;BME280;19905;53.370;-6.314;2023-05-09T07:07:43;100763.84;;;12.08;100.00
29935;BME280;19905;53.370;-6.314;2023-05-09T07:10:14;100763.09;;;12.17;100.00
29935;BME280;19905;53.370;-6.314;2023-05-09T07:12:43;100760.06;;;12.21;100.00
29935;BME280;19905;53.370;-6.314;2023-05-09T07:15:12;100758.25;;;12.22;100.00
29935;BME280;19905;53.370;-6.314;2023-05-09T07:17:54;100758.00;;;12.25;100.00
29935;BME280;19905;53.370;-6.314;2023-05-09T07:20:24;100760.19;;;12.41;100.00
29935;BME280;19905;53.370;-6.314;2023-05-09T07:22:52;100758.66;;;12.38;100.00
29935;BME280;19905;53.370;-6.314;2023-05-09T07:25:23;100764.25;;;12.56;100.00
29935;BME280;19905;53.370;-6.314;2023-05-09T07:27:51;100757.44;;;12.42;100.00
29935;BME280;19905;53.370;-6.314;2023-05-09T07:30:20;100758.22;;;12.54;100.00
29935;BME280;19905;53.370;-6.314;2023-05-09T07:32:51;100759.06;;;12.34;100.00
29935;BME280;19905;53.370;-6.314;2023-05-09T07:35:21;100756.13;;;12.37;100.00
29935;BME280;19905;53.370;-6.314;2023-05-09T07:37:49;100763.13;;;12.38;100.00
29935;BME280;19905;53.370;-6.314;2023-05-09T07:40:18;100756.88;;;12.28;100.00
29935;BME280;19905;53.370;-6.314;2023-05-09T07:42:48;100752.06;;;12.33;100.00
29935;BME280;19905;53.370;-6.314;2023-05-09T07:45:17;100752.91;;;12.33;100.00
29935;BME280;19905;53.370;-6.314;2023-05-09T07:47:49;100762.69;;;12.33;100.00
29935;BME280;19905;53.370;-6.314;2023-05-09T07:50:18;100758.53;;;12.40;100.00
29935;BME280;19905;53.370;-6.314;2023-05-09T07:52:49;100757.06;;;12.47;100.00
29935;BME280;19905;53.370;-6.314;2023-05-09T07:55:18;100761.38;;;12.48;100.00
29935;BME280;19905;53.370;-6.314;2023-05-09T07:57:49;100748.28;;;12.46;100.00
29935;BME280;19905;53.370;-6.314;2023-05-09T08:00:18;100738.50;;;12.47;100.00
29935;BME280;19905;53.370;-6.314;2023-05-09T08:02:49;100759.78;;;12.57;100.00
29935;BME280;19905;53.370;-6.314;2023-05-09T08:05:20;100739.16;;;12.60;100.00
29935;BME280;19905;53.370;-6.314;2023-05-09T08:07:48;100739.47;;;12.67;100.00
29935;BME280;19905;53.370;-6.314;2023-05-09T08:10:16;100725.53;;;12.65;100.00
29935;BME280;19905;53.370;-6.314;2023-05-09T08:12:45;100731.44;;;12.78;100.00
29935;BME280;19905;53.370;-6.314;2023-05-09T08:15:15;100739.94;;;12.72;100.00
29935;BME280;19905;53.370;-6.314;2023-05-09T08:17:44;100735.09;;;12.56;100.00
29935;BME280;19905;53.370;-6.314;2023-05-09T08:20:13;100735.97;;;12.45;100.00
29935;BME280;19905;53.370;-6.314;2023-05-09T08:22:42;100726.56;;;12.53;100.00
29935;BME280;19905;53.370;-6.314;2023-05-09T08:25:10;100733.22;;;12.47;100.00
29935;BME280;19905;53.370;-6.314;2023-05-09T08:27:42;100725.38;;;12.45;100.00
29935;BME280;19905;53.370;-6.314;2023-05-09T08:30:11;100719.69;;;12.50;100.00
29935;BME280;19905;53.370;-6.314;2023-05-09T08:32:44;100733.16;;;12.58;100.00
29935;BME280;19905;53.370;-6.314;2023-05-09T08:35:14;100731.06;;;12.62;100.00
29935;BME280;19905;53.370;-6.314;2023-05-09T08:37:43;100728.34;;;12.73;100.00
29935;BME280;19905;53.370;-6.314;2023-05-09T08:40:14;100718.72;;;12.72;100.00
29935;BME280;19905;53.370;-6.314;2023-05-09T08:42:43;100713.81;;;12.67;100.00
29935;BME280;19905;53.370;-6.314;2023-05-09T08:45:13;100713.41;;;12.72;100.00
29935;BME280;19905;53.370;-6.314;2023-05-09T08:47:42;100721.16;;;12.85;100.00
29935;BME280;19905;53.370;-6.314;2023-05-09T08:50:13;100712.63;;;12.81;100.00
29935;BME280;19905;53.370;-6.314;2023-05-09T08:52:44;100696.72;;;12.81;100.00
29935;BME280;19905;53.370;-6.314;2023-05-09T08:55:13;100708.94;;;12.93;100.00
29935;BME280;19905;53.370;-6.314;2023-05-09T08:58:01;100698.38;;;13.03;100.00
29935;BME280;19905;53.370;-6.314;2023-05-09T09:00:30;100698.41;;;13.13;100.00
29935;BME280;19905;53.370;-6.314;2023-05-09T09:03:01;100699.75;;;12.97;100.00
29935;BME280;19905;53.370;-6.314;2023-05-09T09:05:32;100696.16;;;13.08;100.00
29935;BME280;19905;53.370;-6.314;2023-05-09T09:08:08;100690.88;;;12.87;100.00
29935;BME280;19905;53.370;-6.314;2023-05-09T09:10:40;100687.00;;;12.91;100.00
29935;BME280;19905;53.370;-6.314;2023-05-09T09:13:13;100684.63;;;12.88;100.00
29935;BME280;19905;53.370;-6.314;2023-05-09T09:15:44;100688.22;;;12.87;100.00
29935;BME280;19905;53.370;-6.314;2023-05-09T09:18:20;100683.44;;;13.02;100.00
29935;BME280;19905;53.370;-6.314;2023-05-09T09:20:55;100682.66;;;13.21;100.00
29935;BME280;19905;53.370;-6.314;2023-05-09T09:23:25;100675.13;;;13.16;100.00
29935;BME280;19905;53.370;-6.314;2023-05-09T09:25:57;100678.66;;;13.27;100.00
29935;BME280;19905;53.370;-6.314;2023-05-09T09:28:27;100663.50;;;13.38;100.00
29935;BME280;19905;53.370;-6.314;2023-05-09T09:30:55;100656.88;;;13.33;100.00
29935;BME280;19905;53.370;-6.314;2023-05-09T09:33:25;100651.63;;;13.42;100.00
29935;BME280;19905;53.370;-6.314;2023-05-09T09:35:56;100649.41;;;13.67;100.00
29935;BME280;19905;53.370;-6.314;2023-05-09T09:38:26;100647.19;;;13.72;100.00
29935;BME280;19905;53.370;-6.314;2023-05-09T09:40:57;100638.94;;;13.75;100.00
29935;BME280;19905;53.370;-6.314;2023-05-09T09:43:28;100639.22;;;13.91;100.00
29935;BME280;19905;53.370;-6.314;2023-05-09T09:45:59;100633.47;;;14.06;100.00
29935;BME280;19905;53.370;-6.314;2023-05-09T09:48:30;100630.81;;;14.06;100.00
29935;BME280;19905;53.370;-6.314;2023-05-09T09:51:04;100626.47;;;14.05;100.00
29935;BME280;19905;53.370;-6.314;2023-05-09T09:53:40;100624.63;;;14.24;100.00
29935;BME280;19905;53.370;-6.314;2023-05-09T09:56:09;100614.69;;;14.36;100.00
29935;BME280;19905;53.370;-6.314;2023-05-09T09:58:39;100609.34;;;14.56;100.00
29935;BME280;19905;53.370;-6.314;2023-05-09T10:01:09;100602.25;;;14.74;100.00
29935;BME280;19905;53.370;-6.314;2023-05-09T10:03:41;100614.16;;;14.70;100.00
29935;BME280;19905;53.370;-6.314;2023-05-09T10:06:14;100601.88;;;14.69;100.00
29935;BME280;19905;53.370;-6.314;2023-05-09T10:08:44;100609.75;;;14.51;100.00
29935;BME280;19905;53.370;-6.314;2023-05-09T10:11:14;100598.47;;;14.20;100.00
29935;BME280;19905;53.370;-6.314;2023-05-09T10:13:43;100593.69;;;14.33;100.00
29935;BME280;19905;53.370;-6.314;2023-05-09T10:16:12;100594.94;;;14.58;100.00
29935;BME280;19905;53.370;-6.314;2023-05-09T10:18:41;100589.16;;;14.63;100.00
29935;BME280;19905;53.370;-6.314;2023-05-09T10:21:14;100587.78;;;14.59;100.00
29935;BME280;19905;53.370;-6.314;2023-05-09T10:23:45;100594.38;;;14.45;100.00
29935;BME280;19905;53.370;-6.314;2023-05-09T10:26:17;100598.06;;;14.34;100.00
29935;BME280;19905;53.370;-6.314;2023-05-09T10:28:54;100583.38;;;14.30;100.00
29935;BME280;19905;53.370;-6.314;2023-05-09T10:31:25;100585.75;;;14.23;100.00
29935;BME280;19905;53.370;-6.314;2023-05-09T10:33:54;100581.94;;;14.45;100.00
29935;BME280;19905;53.370;-6.314;2023-05-09T10:36:25;100585.41;;;14.56;100.00
29935;BME280;19905;53.370;-6.314;2023-05-09T10:38:57;100575.94;;;14.81;100.00
29935;BME280;19905;53.370;-6.314;2023-05-09T10:41:27;100577.66;;;14.99;100.00
29935;BME280;19905;53.370;-6.314;2023-05-09T10:43:57;100570.53;;;15.18;100.00
29935;BME280;19905;53.370;-6.314;2023-05-09T10:46:26;100571.97;;;15.30;100.00
29935;BME280;19905;53.370;-6.314;2023-05-09T10:48:55;100558.22;;;15.17;100.00
29935;BME280;19905;53.370;-6.314;2023-05-09T10:51:26;100561.38;;;15.03;100.00
29935;BME280;19905;53.370;-6.314;2023-05-09T10:53:55;100569.28;;;14.94;100.00
29935;BME280;19905;53.370;-6.314;2023-05-09T10:56:25;100561.56;;;15.19;100.00
29935;BME280;19905;53.370;-6.314;2023-05-09T10:58:55;100558.69;;;15.66;100.00
29935;BME280;19905;53.370;-6.314;2023-05-09T11:01:31;100548.25;;;15.90;100.00
29935;BME280;19905;53.370;-6.314;2023-05-09T11:04:09;100550.69;;;15.66;100.00
29935;BME280;19905;53.370;-6.314;2023-05-09T11:06:42;100528.66;;;15.99;100.00
29935;BME280;19905;53.370;-6.314;2023-05-09T11:09:27;100528.97;;;16.22;100.00
29935;BME280;19905;53.370;-6.314;2023-05-09T11:12:10;100530.03;;;16.38;100.00
29935;BME280;19905;53.370;-6.314;2023-05-09T11:14:41;100515.09;;;16.45;100.00
29935;BME280;19905;53.370;-6.314;2023-05-09T11:17:12;100508.00;;;16.27;100.00
29935;BME280;19905;53.370;-6.314;2023-05-09T11:19:58;100511.25;;;16.47;100.00
29935;BME280;19905;53.370;-6.314;2023-05-09T11:22:38;100507.72;;;16.81;100.00
29935;BME280;19905;53.370;-6.314;2023-05-09T11:25:08;100505.56;;;16.85;100.00
29935;BME280;19905;53.370;-6.314;2023-05-09T11:27:44;100509.75;;;16.87;100.00
29935;BME280;19905;53.370;-6.314;2023-05-09T11:30:15;100497.31;;;17.28;100.00
29935;BME280;19905;53.370;-6.314;2023-05-09T11:32:45;100499.31;;;17.59;100.00
29935;BME280;19905;53.370;-6.314;2023-05-09T11:35:16;100492.16;;;17.84;100.00
29935;BME280;19905;53.370;-6.314;2023-05-09T11:37:49;100490.66;;;17.73;100.00
29935;BME280;19905;53.370;-6.314;2023-05-09T11:40:19;100493.94;;;18.00;100.00
29935;BME280;19905;53.370;-6.314;2023-05-09T11:42:50;100499.81;;;17.63;100.00
29935;BME280;19905;53.370;-6.314;2023-05-09T11:45:25;100491.97;;;17.69;100.00
29935;BME280;19905;53.370;-6.314;2023-05-09T11:47:54;100494.81;;;17.84;100.00
29935;BME280;19905;53.370;-6.314;2023-05-09T11:50:25;100499.28;;;18.00;100.00
29935;BME280;19905;53.370;-6.314;2023-05-09T11:52:55;100488.00;;;18.37;100.00
29935;BME280;19905;53.370;-6.314;2023-05-09T11:55:27;100498.13;;;17.94;100.00
29935;BME280;19905;53.370;-6.314;2023-05-09T11:57:58;100485.78;;;17.93;100.00
29935;BME280;19905;53.370;-6.314;2023-05-09T12:00:27;100488.81;;;17.74;100.00
29935;BME280;19905;53.370;-6.314;2023-05-09T12:02:58;100483.59;;;17.72;100.00
29935;BME280;19905;53.370;-6.314;2023-05-09T12:05:27;100489.31;;;17.69;100.00
29935;BME280;19905;53.370;-6.314;2023-05-09T12:08:01;100492.66;;;17.55;100.00
29935;BME280;19905;53.370;-6.314;2023-05-09T12:10:31;100495.84;;;17.50;100.00
29935;BME280;19905;53.370;-6.314;2023-05-09T12:13:00;100499.16;;;17.20;100.00
29935;BME280;19905;53.370;-6.314;2023-05-09T12:15:35;100496.47;;;17.20;100.00
29935;BME280;19905;53.370;-6.314;2023-05-09T12:18:06;100494.97;;;17.09;100.00
29935;BME280;19905;53.370;-6.314;2023-05-09T12:20:43;100491.94;;;17.04;100.00
29935;BME280;19905;53.370;-6.314;2023-05-09T12:23:15;100499.13;;;17.12;100.00
29935;BME280;19905;53.370;-6.314;2023-05-09T12:25:47;100485.97;;;17.43;100.00
29935;BME280;19905;53.370;-6.314;2023-05-09T12:28:16;100491.28;;;17.59;100.00
29935;BME280;19905;53.370;-6.314;2023-05-09T12:30:46;100494.47;;;17.38;100.00
29935;BME280;19905;53.370;-6.314;2023-05-09T12:33:15;100497.16;;;17.14;100.00
29935;BME280;19905;53.370;-6.314;2023-05-09T12:35:45;100491.13;;;17.12;100.00
29935;BME280;19905;53.370;-6.314;2023-05-09T12:38:20;100492.00;;;16.70;100.00
29935;BME280;19905;53.370;-6.314;2023-05-09T12:40:59;100496.66;;;16.25;100.00
29935;BME280;19905;53.370;-6.314;2023-05-09T12:43:32;100504.81;;;16.24;100.00
29935;BME280;19905;53.370;-6.314;2023-05-09T12:46:02;100498.41;;;16.09;100.00
29935;BME280;19905;53.370;-6.314;2023-05-09T12:48:35;100499.28;;;16.51;100.00